Time;durP1;ratioP1;P1;durP2;ratioP2;P2;SDS_P1;SDS_P2;PMS_P1;PMS_P2;Temp;Humidity;BMP_temperature;BMP_pressure;BME280_temperature;BME280_humidity;BME280_pressure;Samples;Min_cycle;Max_cycle;Signal;HPM_P1;HPM_P2
2022/06/30 00:01:15;;;;;;;4.7;3.5;;;;;;;;;;;;;
2022/06/30 00:03:47;;;;;;;4.3;3.5;;;;;;;;;;;;;
2022/06/30 00:06:17;;;;;;;4.2;3.8;;;;;;;;;;;;;
2022/06/30 00:08:47;;;;;;;5.6;4.1;;;;;;;;;;;;;
2022/06/30 00:11:15;;;;;;;5.4;4.2;;;;;;;;;;;;;
2022/06/30 00:13:40;;;;;;;5.3;3.8;;;;;;;;;;;;;
2022/06/30 00:16:06;;;;;;;6.1;3.7;;;;;;;;;;;;;
2022/06/30 00:18:31;;;;;;;5.2;3.8;;;;;;;;;;;;;
2022/06/30 00:20:57;;;;;;;5.3;4.1;;;;;;;;;;;;;
2022/06/30 00:23:21;;;;;;;4.7;3.9;;;;;;;;;;;;;
2022/06/30 00:25:47;;;;;;;5.6;4;;;;;;;;;;;;;
2022/06/30 00:28:13;;;;;;;5.6;4.3;;;;;;;;;;;;;
2022/06/30 00:30:38;;;;;;;6.2;3.6;;;;;;;;;;;;;
2022/06/30 00:33:03;;;;;;;6.1;3.7;;;;;;;;;;;;;
2022/06/30 00:35:29;;;;;;;5.2;3.8;;;;;;;;;;;;;
2022/06/30 00:37:54;;;;;;;8.9;4.4;;;;;;;;;;;;;
2022/06/30 00:40:21;;;;;;;5.3;3.8;;;;;;;;;;;;;
2022/06/30 00:42:45;;;;;;;4.5;4.1;;;;;;;;;;;;;
2022/06/30 00:45:13;;;;;;;4.8;4.4;;;;;;;;;;;;;
2022/06/30 00:47:38;;;;;;;5.7;4;;;;;;;;;;;;;
2022/06/30 00:50:03;;;;;;;5.8;4.4;;;;;;;;;;;;;
2022/06/30 00:52:28;;;;;;;4.6;3.9;;;;;;;;;;;;;
2022/06/30 00:54:54;;;;;;;7.3;4.3;;;;;;;;;;;;;
2022/06/30 00:57:19;;;;;;;4.7;3.7;;;;;;;;;;;;;
2022/06/30 00:59:45;;;;;;;4.3;3.8;;;;;;;;;;;;;
2022/06/30 01:02:10;;;;;;;4.2;3.8;;;;;;;;;;;;;
2022/06/30 01:04:35;;;;;;;6.9;3.8;;;;;;;;;;;;;
2022/06/30 01:07:00;;;;;;;5.5;4;;;;;;;;;;;;;
2022/06/30 01:14:18;;;;;;;5.5;4.1;;;;;;;;;;;;;
2022/06/30 01:16:42;;;;;;;4.4;4;;;;;;;;;;;;;
2022/06/30 01:19:07;;;;;;;7.3;4.3;;;;;;;;;;;;;
2022/06/30 01:21:34;;;;;;;5.5;4.4;;;;;;;;;;;;;
2022/06/30 01:23:58;;;;;;;5.5;3.6;;;;;;;;;;;;;
2022/06/30 01:26:25;;;;;;;6.7;3.8;;;;;;;;;;;;;
2022/06/30 01:28:50;;;;;;;5.7;3.6;;;;;;;;;;;;;
2022/06/30 01:31:15;;;;;;;5.7;3.7;;;;;;;;;;;;;
2022/06/30 01:33:40;;;;;;;5.9;3.8;;;;;;;;;;;;;
2022/06/30 01:36:07;;;;;;;4.4;3.7;;;;;;;;;;;;;
2022/06/30 01:38:32;;;;;;;5;3.8;;;;;;;;;;;;;
2022/06/30 01:40:59;;;;;;;4.9;3.8;;;;;;;;;;;;;
2022/06/30 01:43:24;;;;;;;6.3;4.3;;;;;;;;;;;;;
2022/06/30 01:45:49;;;;;;;4.8;3.9;;;;;;;;;;;;;
2022/06/30 01:48:15;;;;;;;5.6;3.7;;;;;;;;;;;;;
2022/06/30 01:50:40;;;;;;;5;3.8;;;;;;;;;;;;;
2022/06/30 01:53:05;;;;;;;7;3.8;;;;;;;;;;;;;
2022/06/30 01:55:31;;;;;;;4.1;3.7;;;;;;;;;;;;;
2022/06/30 01:57:56;;;;;;;4.5;3.8;;;;;;;;;;;;;
2022/06/30 02:00:23;;;;;;;4.7;3.8;;;;;;;;;;;;;
2022/06/30 02:02:48;;;;;;;4.3;3.7;;;;;;;;;;;;;
2022/06/30 02:05:15;;;;;;;4.5;3.5;;;;;;;;;;;;;
2022/06/30 02:07:40;;;;;;;5.1;3.6;;;;;;;;;;;;;
2022/06/30 02:10:06;;;;;;;5.3;3.7;;;;;;;;;;;;;
2022/06/30 02:12:49;;;;;;;4.9;3.9;;;;;;;;;;;;;
2022/06/30 02:14:56;;;;;;;6;4.1;;;;;;;;;;;;;
2022/06/30 02:17:21;;;;;;;4.8;4.3;;;;;;;;;;;;;
2022/06/30 02:19:46;;;;;;;7.1;4.3;;;;;;;;;;;;;
2022/06/30 02:22:11;;;;;;;4.9;4.4;;;;;;;;;;;;;
2022/06/30 02:24:36;;;;;;;6.3;4.2;;;;;;;;;;;;;
2022/06/30 02:27:02;;;;;;;4.5;4;;;;;;;;;;;;;
2022/06/30 02:29:28;;;;;;;5.9;4.2;;;;;;;;;;;;;
2022/06/30 02:31:53;;;;;;;5.5;4.1;;;;;;;;;;;;;
2022/06/30 02:34:18;;;;;;;7.7;4.5;;;;;;;;;;;;;
2022/06/30 02:36:43;;;;;;;5.1;4;;;;;;;;;;;;;
2022/06/30 02:39:10;;;;;;;6.3;4;;;;;;;;;;;;;
2022/06/30 02:41:35;;;;;;;5.7;4.3;;;;;;;;;;;;;
2022/06/30 02:44:02;;;;;;;6.6;4.2;;;;;;;;;;;;;
2022/06/30 02:46:26;;;;;;;4.6;4.1;;;;;;;;;;;;;
2022/06/30 02:48:53;;;;;;;6.7;4.8;;;;;;;;;;;;;
2022/06/30 02:51:18;;;;;;;5.2;4.6;;;;;;;;;;;;;
2022/06/30 02:53:43;;;;;;;6.5;4.4;;;;;;;;;;;;;
2022/06/30 02:56:09;;;;;;;6.2;3.9;;;;;;;;;;;;;
2022/06/30 02:58:34;;;;;;;6.7;4.1;;;;;;;;;;;;;
2022/06/30 03:01:00;;;;;;;7.4;4;;;;;;;;;;;;;
2022/06/30 03:03:25;;;;;;;4.3;3.9;;;;;;;;;;;;;
2022/06/30 03:05:50;;;;;;;5.2;3.8;;;;;;;;;;;;;
2022/06/30 03:08:16;;;;;;;5.7;4;;;;;;;;;;;;;
2022/06/30 03:10:41;;;;;;;4.8;4;;;;;;;;;;;;;
2022/06/30 03:13:08;;;;;;;4.8;4;;;;;;;;;;;;;
2022/06/30 03:15:33;;;;;;;5.4;3.6;;;;;;;;;;;;;
2022/06/30 03:17:59;;;;;;;6.5;4.1;;;;;;;;;;;;;
2022/06/30 03:20:23;;;;;;;4.2;3.4;;;;;;;;;;;;;
2022/06/30 03:22:50;;;;;;;4.2;3.8;;;;;;;;;;;;;
2022/06/30 03:25:15;;;;;;;6.6;4.4;;;;;;;;;;;;;
2022/06/30 03:27:41;;;;;;;6.1;4.4;;;;;;;;;;;;;
2022/06/30 03:30:06;;;;;;;4.6;4;;;;;;;;;;;;;
2022/06/30 03:32:33;;;;;;;7.9;4.5;;;;;;;;;;;;;
2022/06/30 03:34:58;;;;;;;7.1;4.3;;;;;;;;;;;;;
2022/06/30 03:37:24;;;;;;;6.8;5;;;;;;;;;;;;;
2022/06/30 03:39:49;;;;;;;7.7;5.5;;;;;;;;;;;;;
2022/06/30 03:42:14;;;;;;;5;4.2;;;;;;;;;;;;;
2022/06/30 03:44:39;;;;;;;8;4.3;;;;;;;;;;;;;
2022/06/30 03:47:05;;;;;;;6.1;3.6;;;;;;;;;;;;;
2022/06/30 03:49:30;;;;;;;4.9;4.1;;;;;;;;;;;;;
2022/06/30 03:51:57;;;;;;;5.4;4;;;;;;;;;;;;;
2022/06/30 03:54:22;;;;;;;5.2;4.3;;;;;;;;;;;;;
2022/06/30 03:56:47;;;;;;;5.6;4.1;;;;;;;;;;;;;
2022/06/30 03:59:12;;;;;;;4.8;4.1;;;;;;;;;;;;;
2022/06/30 04:02:31;;;;;;;4.9;4.1;;;;;;;16.05;94.08984;936.0411;;;;
2022/06/30 04:04:56;;;;;;;5.9;4;;;;;;;15.95;94.6123;935.9997;;;;
2022/06/30 04:07:26;;;;;;;5.5;4.3;;;;;;;15.97;95.1709;935.9608;;;;
2022/06/30 04:09:51;;;;;;;8.2;4.5;;;;;;;15.88;95.46387;935.9621;;;;
2022/06/30 04:12:16;;;;;;;7.3;4;;;;;;;15.73;96.78223;935.9793;;;;
2022/06/30 04:14:41;;;;;;;5.7;4.3;;;;;;;15.74;97.23438;935.9495;;;;
2022/06/30 04:17:08;;;;;;;7.2;4;;;;;;;16;96.23047;935.9595;;;;
2022/06/30 04:19:34;;;;;;;5.2;4;;;;;;;16.12;94.7168;935.9733;;;;
2022/06/30 04:22:00;;;;;;;5.4;4;;;;;;;16.2;93.99414;935.8427;;;;
2022/06/30 04:24:25;;;;;;;4.7;3.8;;;;;;;16.24;94.1543;935.8865;;;;
2022/06/30 04:26:52;;;;;;;7.9;4.2;;;;;;;16.35;94.32813;935.8108;;;;
2022/06/30 04:29:17;;;;;;;8;4.3;;;;;;;16.39;94.84668;935.8511;;;;
2022/06/30 04:34:09;;;;;;;5.6;3.9;;;;;;;16.63;93.11426;935.9328;;;;
2022/06/30 04:36:34;;;;;;;8.1;4.5;;;;;;;16.75;92.33984;935.9037;;;;
2022/06/30 04:39:00;;;;;;;6.3;4.9;;;;;;;16.83;92.12598;935.8736;;;;
2022/06/30 04:41:25;;;;;;;5.5;4.9;;;;;;;16.93;91.64844;935.8056;;;;
2022/06/30 04:43:52;;;;;;;7.6;4.5;;;;;;;16.96;91.23633;935.6708;;;;
2022/06/30 04:46:17;;;;;;;4.9;4.1;;;;;;;17.03;89.74512;935.7703;;;;
2022/06/30 04:48:47;;;;;;;5.3;4.1;;;;;;;17.07;89.58008;935.7317;;;;
2022/06/30 04:51:10;;;;;;;5.8;4.4;;;;;;;17.05;90.27246;935.7054;;;;
2022/06/30 04:53:36;;;;;;;5.8;4.1;;;;;;;17.12;89.78711;935.7573;;;;
2022/06/30 04:56:01;;;;;;;6.4;4.3;;;;;;;16.9;90.49512;935.7556;;;;
2022/06/30 04:58:28;;;;;;;6.4;4.4;;;;;;;16.99;90.9873;935.7153;;;;
2022/06/30 05:00:52;;;;;;;11.8;6.1;;;;;;;16.96;91.52637;935.7342;;;;
2022/06/30 05:03:21;;;;;;;17.6;11.3;;;;;;;17.07;90.97168;935.6802;;;;
2022/06/30 05:05:46;;;;;;;21.1;11.9;;;;;;;17.53;91.24121;935.623;;;;
2022/06/30 05:08:11;;;;;;;17.3;9.7;;;;;;;18.9;85.08984;935.6053;;;;
2022/06/30 05:10:36;;;;;;;13.8;7.5;;;;;;;20.37;80.67773;935.5543;;;;
2022/06/30 05:13:07;;;;;;;11.4;7.3;;;;;;;21.73;72.65527;935.519;;;;
2022/06/30 05:15:30;;;;;;;9.8;4.4;;;;;;;22.85;67.28613;935.5055;;;;
2022/06/30 05:17:55;;;;;;;7.1;3.6;;;;;;;23.27;64.84473;935.4442;;;;
2022/06/30 05:20:20;;;;;;;4.3;3;;;;;;;22.65;66.91504;935.4213;;;;
2022/06/30 05:22:50;;;;;;;5.4;2.9;;;;;;;22.11;69.16699;935.3273;;;;
2022/06/30 05:27:40;;;;;;;6.1;3.1;;;;;;;21.27;72.81445;935.3434;;;;
2022/06/30 05:30:10;;;;;;;5.9;3;;;;;;;21.34;73.69336;935.3973;;;;
2022/06/30 05:32:34;;;;;;;4.8;2.8;;;;;;;21.33;74.07813;935.3903;;;;
2022/06/30 05:35:00;;;;;;;4.6;2.9;;;;;;;21.13;74.27734;935.4094;;;;
2022/06/30 05:37:25;;;;;;;6.2;2.7;;;;;;;21.35;74.92383;935.3419;;;;
2022/06/30 05:39:53;;;;;;;4.5;2.7;;;;;;;21.66;73.59473;935.2603;;;;
2022/06/30 05:42:18;;;;;;;5.1;3.1;;;;;;;21.9;75.86035;935.3058;;;;
2022/06/30 05:44:45;;;;;;;4;2.6;;;;;;;22.18;73.07129;935.3513;;;;
2022/06/30 05:47:09;;;;;;;4.2;2.8;;;;;;;22.45;72.51758;935.3346;;;;
2022/06/30 05:49:37;;;;;;;3.8;2.5;;;;;;;22.59;70.56738;935.3254;;;;
2022/06/30 05:52:00;;;;;;;5.2;2.9;;;;;;;22.33;70.25586;935.3098;;;;
2022/06/30 05:54:25;;;;;;;3.9;2.9;;;;;;;21.45;71.44043;935.3183;;;;
2022/06/30 05:56:51;;;;;;;8.6;5.1;;;;;;;20.69;74.91797;935.3544;;;;
2022/06/30 05:59:17;;;;;;;7.6;4.6;;;;;;;20.41;76.77344;935.2734;;;;
2022/06/30 06:01:42;;;;;;;5.9;3.5;;;;;;;20.85;76.5332;935.2927;;;;
2022/06/30 06:04:07;;;;;;;6.5;3;;;;;;;22.64;68.87305;935.2061;;;;
2022/06/30 06:06:34;;;;;;;5.3;2.8;;;;;;;24.31;62.86523;935.166;;;;
2022/06/30 06:08:59;;;;;;;5.3;2.5;;;;;;;24.58;60.27441;935.2075;;;;
2022/06/30 06:11:25;;;;;;;4.8;2.8;;;;;;;25.1;62.7168;935.1824;;;;
2022/06/30 06:13:49;;;;;;;3.4;2.5;;;;;;;26.9;54.74512;935.0854;;;;
2022/06/30 06:16:16;;;;;;;3.4;2.4;;;;;;;27.37;51.80176;935.1423;;;;
2022/06/30 06:18:41;;;;;;;4.3;2.3;;;;;;;27.01;52.50586;935.0689;;;;
2022/06/30 06:21:08;;;;;;;4.6;2.4;;;;;;;26.47;54.05273;935.0266;;;;
2022/06/30 06:23:33;;;;;;;6.4;2.5;;;;;;;25.89;56.12402;935.0453;;;;
2022/06/30 06:26:00;;;;;;;5.8;3.1;;;;;;;24.97;59.28711;935.1277;;;;
2022/06/30 06:30:54;;;;;;;5.1;2.7;;;;;;;24.19;62.45898;935.1192;;;;
2022/06/30 06:33:20;;;;;;;6.9;2.9;;;;;;;23.57;64.05469;935.0402;;;;
2022/06/30 06:35:45;;;;;;;3.7;3.1;;;;;;;23.15;66.35742;935.028;;;;
2022/06/30 06:38:12;;;;;;;4.1;2.9;;;;;;;23;67.12012;935.0044;;;;
2022/06/30 06:40:37;;;;;;;4.8;3;;;;;;;22.7;67.89844;934.9964;;;;
2022/06/30 06:43:05;;;;;;;5.9;3.2;;;;;;;22.9;67.92871;934.9622;;;;
2022/06/30 06:45:31;;;;;;;6.9;3.2;;;;;;;22.93;67.07324;934.9841;;;;
2022/06/30 06:47:58;;;;;;;4;2.8;;;;;;;22.83;67.60059;934.9451;;;;
2022/06/30 06:50:23;;;;;;;3;2.6;;;;;;;23;68.26074;934.9191;;;;
2022/06/30 06:52:49;;;;;;;5.5;3.3;;;;;;;23.35;67.63184;934.9072;;;;
2022/06/30 06:55:16;;;;;;;5.6;2.7;;;;;;;23.55;65.60352;934.8781;;;;
2022/06/30 06:57:43;;;;;;;3.4;2.4;;;;;;;23.65;63.63086;934.9221;;;;
2022/06/30 07:00:07;;;;;;;4.8;2.6;;;;;;;24.41;60.71094;934.8943;;;;
2022/06/30 07:02:36;;;;;;;7.2;3;;;;;;;26.51;55.38574;934.8221;;;;
2022/06/30 07:05:01;;;;;;;4.1;2.5;;;;;;;28.49;50.50391;934.8858;;;;
2022/06/30 07:07:27;;;;;;;3.2;2.7;;;;;;;29.83;46.54004;934.8719;;;;
2022/06/30 07:09:52;;;;;;;4.8;2.7;;;;;;;30.34;45.92383;934.8421;;;;
2022/06/30 07:12:19;;;;;;;3.5;2.2;;;;;;;29.73;45.39551;934.8474;;;;
2022/06/30 07:14:44;;;;;;;3.2;2.4;;;;;;;28.41;47.33203;934.82;;;;
2022/06/30 07:17:13;;;;;;;5.2;2.6;;;;;;;28.79;47.96777;934.7977;;;;
2022/06/30 07:19:38;;;;;;;4.7;2.2;;;;;;;29.7;48.8623;934.7264;;;;
2022/06/30 07:22:05;;;;;;;4.7;2.1;;;;;;;30.34;48.0957;934.7084;;;;
2022/06/30 07:24:30;;;;;;;3.3;2.2;;;;;;;29.59;46.37109;934.686;;;;
2022/06/30 07:26:56;;;;;;;5.3;2.9;;;;;;;29.95;47.29199;934.6688;;;;
2022/06/30 07:29:21;;;;;;;5.5;2.5;;;;;;;29.14;46.80078;934.6811;;;;
2022/06/30 07:31:49;;;;;;;5.4;2.1;;;;;;;28.53;48.61719;934.6783;;;;
2022/06/30 07:34:14;;;;;;;6;2.4;;;;;;;27.63;49.65918;934.6127;;;;
2022/06/30 07:36:42;;;;;;;4.4;2.3;;;;;;;28.33;48.02539;934.69;;;;
2022/06/30 07:39:06;;;;;;;3.1;2.4;;;;;;;28.53;47.80859;934.6675;;;;
2022/06/30 07:41:32;;;;;;;2.7;2.2;;;;;;;28.26;48.71875;934.6498;;;;
2022/06/30 07:43:56;;;;;;;4.4;2.4;;;;;;;28.88;47.96387;934.582;;;;
2022/06/30 07:46:24;;;;;;;4.3;2.5;;;;;;;29.28;47.86426;934.5672;;;;
2022/06/30 07:48:49;;;;;;;3.2;2.1;;;;;;;29.7;45.94141;934.5756;;;;
2022/06/30 07:51:15;;;;;;;4.3;2.4;;;;;;;29.91;47.58398;934.5549;;;;
2022/06/30 07:53:40;;;;;;;4.7;2.1;;;;;;;29.14;47.02832;934.6152;;;;
2022/06/30 07:56:06;;;;;;;4.2;2.4;;;;;;;29.13;47.94336;934.608;;;;
2022/06/30 07:58:31;;;;;;;5.6;2.6;;;;;;;28.67;49.04785;934.5161;;;;
2022/06/30 08:00:58;;;;;;;5.2;2.5;;;;;;;28.79;48.55078;934.4824;;;;
2022/06/30 08:03:23;;;;;;;3.9;2.4;;;;;;;29.34;47.20313;934.4855;;;;
2022/06/30 08:05:51;;;;;;;3.8;2.1;;;;;;;30.16;46.26367;934.3882;;;;
2022/06/30 08:08:16;;;;;;;3.5;2.1;;;;;;;30.36;45.47168;934.4239;;;;
2022/06/30 08:10:43;;;;;;;4.7;2.5;;;;;;;32.25;42.80762;934.3933;;;;
2022/06/30 08:13:08;;;;;;;4.8;2.3;;;;;;;33.11;41.23047;934.3566;;;;
2022/06/30 08:15:39;;;;;;;4.9;2.3;;;;;;;33.63;38.13867;934.3607;;;;
2022/06/30 08:18:07;;;;;;;4.8;2.1;;;;;;;32.55;38.01172;934.3797;;;;
2022/06/30 08:20:32;;;;;;;3.5;2;;;;;;;33.57;37.1123;934.3381;;;;
2022/06/30 08:22:59;;;;;;;3.7;2;;;;;;;33.41;38.25195;934.3325;;;;
2022/06/30 08:25:24;;;;;;;3.8;2.2;;;;;;;31.88;40.18457;934.2595;;;;
2022/06/30 08:27:50;;;;;;;3.5;2.1;;;;;;;32.69;39.98047;934.2361;;;;
2022/06/30 08:30:15;;;;;;;2.2;2;;;;;;;33.95;38.2373;934.23;;;;
2022/06/30 08:32:43;;;;;;;2.6;2;;;;;;;33.56;40.38184;934.2333;;;;
2022/06/30 08:35:08;;;;;;;3.2;2.1;;;;;;;34.86;35.51563;934.1862;;;;
2022/06/30 08:37:36;;;;;;;3.8;2.1;;;;;;;33.77;38.41504;934.2416;;;;
2022/06/30 08:42:30;;;;;;;4.4;2.5;;;;;;;35.8;35.1416;934.1724;;;;
2022/06/30 08:47:20;;;;;;;2.5;2.1;;;;;;;35.21;34.86719;934.1047;;;;
2022/06/30 08:49:45;;;;;;;2.9;1.8;;;;;;;34.89;36.49512;934.0283;;;;
2022/06/30 08:52:12;;;;;;;3.9;2.3;;;;;;;33.69;37.80664;934.0831;;;;
2022/06/30 08:54:38;;;;;;;4.6;1.9;;;;;;;33.17;38.89355;934.106;;;;
2022/06/30 08:57:02;;;;;;;5.8;2.1;;;;;;;33.31;39.00098;934.0225;;;;
2022/06/30 08:59:27;;;;;;;3.3;1.8;;;;;;;34.07;37.36816;934.0524;;;;
2022/06/30 09:01:57;;;;;;;4.6;2.4;;;;;;;33.87;42.53906;934.0042;;;;
2022/06/30 09:04:21;;;;;;;2.8;2.1;;;;;;;33.55;42.5332;933.9825;;;;
2022/06/30 09:06:47;;;;;;;3.6;2;;;;;;;34.78;36.98047;933.9542;;;;
2022/06/30 09:09:12;;;;;;;3.6;2.6;;;;;;;33.11;38.23926;933.9406;;;;
2022/06/30 09:11:38;;;;;;;3.6;2;;;;;;;32.45;41.66211;933.9291;;;;
2022/06/30 09:14:04;;;;;;;11.1;3.2;;;;;;;32.31;42.0459;933.9659;;;;
2022/06/30 09:16:31;;;;;;;2.8;2;;;;;;;31.52;42.33105;933.9092;;;;
2022/06/30 09:18:56;;;;;;;4.7;2.3;;;;;;;32;44.52148;933.914;;;;
2022/06/30 09:21:22;;;;;;;4;2;;;;;;;32.3;43.56836;933.9417;;;;
2022/06/30 09:23:47;;;;;;;2.6;1.9;;;;;;;32;44.31738;933.853;;;;
2022/06/30 09:26:12;;;;;;;2.8;1.9;;;;;;;31.69;42.95801;933.7535;;;;
2022/06/30 09:28:38;;;;;;;4.4;2;;;;;;;30.21;47.42676;933.7831;;;;
2022/06/30 09:31:03;;;;;;;4;2;;;;;;;30.56;49.74316;933.8022;;;;
2022/06/30 09:33:30;;;;;;;4.1;2.4;;;;;;;31.36;43.37012;933.7924;;;;
2022/06/30 09:35:55;;;;;;;4.5;2.3;;;;;;;30.54;46.85059;933.72;;;;
2022/06/30 09:38:20;;;;;;;2.8;1.9;;;;;;;30.83;46.82129;933.7264;;;;
2022/06/30 09:41:02;;;;;;;3.7;2.2;;;;;;;31.02;46.92383;933.7072;;;;
2022/06/30 09:43:11;;;;;;;3.3;2.3;;;;;;;31.99;46.71484;933.6679;;;;
2022/06/30 09:45:38;;;;;;;5.6;2.1;;;;;;;31.74;47.89844;933.7042;;;;
2022/06/30 09:48:03;;;;;;;2.9;2.1;;;;;;;31.5;45.31055;933.6379;;;;
2022/06/30 09:50:28;;;;;;;2.8;2.1;;;;;;;31.28;48.125;933.5871;;;;
2022/06/30 09:52:54;;;;;;;5.1;2.2;;;;;;;31.57;45.65332;933.6375;;;;
2022/06/30 09:55:19;;;;;;;3.8;2.3;;;;;;;30.53;46.5752;933.5859;;;;
2022/06/30 09:57:48;;;;;;;2.3;1.8;;;;;;;30.95;47.08594;933.5912;;;;
2022/06/30 10:00:13;;;;;;;4.3;2.2;;;;;;;30.19;51.2666;933.5363;;;;
2022/06/30 10:02:41;;;;;;;5;2.2;;;;;;;29.78;51.4707;933.5369;;;;
2022/06/30 10:05:11;;;;;;;3.9;2.7;;;;;;;30.05;49.71289;933.4115;;;;
2022/06/30 10:07:40;;;;;;;4.3;2.5;;;;;;;29.54;52.81348;933.4997;;;;
2022/06/30 10:10:06;;;;;;;4.7;2.6;;;;;;;29.34;52.99414;933.5261;;;;
2022/06/30 10:12:34;;;;;;;4.3;2.7;;;;;;;28.27;57.68164;933.4853;;;;
2022/06/30 10:14:59;;;;;;;3.5;2.7;;;;;;;27.84;56.99805;933.452;;;;
2022/06/30 10:17:25;;;;;;;4.4;2.3;;;;;;;28.18;56.01953;933.4576;;;;
2022/06/30 10:19:50;;;;;;;4;2.7;;;;;;;28.79;53.50098;933.3926;;;;
2022/06/30 10:22:15;;;;;;;4.1;2.7;;;;;;;29.1;53.56055;933.361;;;;
2022/06/30 10:24:45;;;;;;;6;3.1;;;;;;;29.45;55.43945;933.2999;;;;
2022/06/30 10:27:14;;;;;;;4.4;2.7;;;;;;;29.8;56.41016;933.3121;;;;
2022/06/30 10:29:32;;;;;;;4.4;2.5;;;;;;;29.56;56.90527;933.274;;;;
2022/06/30 10:31:57;;;;;;;3.7;2.4;;;;;;;29.28;56.08398;933.3011;;;;
2022/06/30 10:34:22;;;;;;;3.9;2.7;;;;;;;28.99;56.14355;933.2899;;;;
2022/06/30 10:36:48;;;;;;;5;3;;;;;;;29.2;55.03809;933.2918;;;;
2022/06/30 10:39:13;;;;;;;3.5;2.6;;;;;;;29.01;56.89453;933.3386;;;;
2022/06/30 10:41:38;;;;;;;5.4;2.8;;;;;;;29.13;56.2793;933.2823;;;;
2022/06/30 10:44:03;;;;;;;5;2.5;;;;;;;29.2;57.43262;933.3078;;;;
2022/06/30 10:46:28;;;;;;;4.5;2.8;;;;;;;29.25;56.93848;933.2941;;;;
2022/06/30 10:48:54;;;;;;;4.9;3.2;;;;;;;29.05;58.27051;933.2317;;;;
2022/06/30 10:51:22;;;;;;;4.8;2.5;;;;;;;29.22;55.40918;933.2648;;;;
2022/06/30 10:53:48;;;;;;;5.3;2.7;;;;;;;29.24;57.90039;933.2662;;;;
2022/06/30 10:56:13;;;;;;;6.3;2.8;;;;;;;29.47;54.68945;933.1746;;;;
2022/06/30 10:58:38;;;;;;;4.7;3;;;;;;;29.24;59.65332;933.1881;;;;
2022/06/30 11:01:03;;;;;;;4.1;2.9;;;;;;;29.47;57.53613;933.1406;;;;
2022/06/30 11:03:30;;;;;;;4;2.7;;;;;;;29.48;58.02832;933.1532;;;;
2022/06/30 11:05:55;;;;;;;4.6;2.4;;;;;;;29.66;56.30957;933.1229;;;;
2022/06/30 11:08:24;;;;;;;4.4;2.8;;;;;;;29.87;53.79492;933.0172;;;;
2022/06/30 11:10:49;;;;;;;3;2.5;;;;;;;29.94;54.91309;933.0053;;;;
2022/06/30 11:13:14;;;;;;;6.4;3.1;;;;;;;29.77;54.54688;933.0162;;;;
2022/06/30 11:15:40;;;;;;;4.9;3;;;;;;;29.62;56.69727;932.9866;;;;
2022/06/30 11:18:05;;;;;;;5.3;2.9;;;;;;;29.63;55.69824;932.9481;;;;
2022/06/30 11:20:31;;;;;;;4.3;2.9;;;;;;;29.54;57.72559;932.962;;;;
2022/06/30 11:22:58;;;;;;;5.5;3;;;;;;;29.78;55.21582;932.9721;;;;
2022/06/30 11:27:49;;;;;;;4.4;3;;;;;;;29.73;56.41309;932.8708;;;;
2022/06/30 11:30:15;;;;;;;4.2;3;;;;;;;29.23;57.06543;932.7762;;;;
2022/06/30 11:32:40;;;;;;;4.3;3;;;;;;;29.21;58.70703;932.8314;;;;
2022/06/30 11:35:05;;;;;;;4.5;3;;;;;;;29.14;58.37598;932.7752;;;;
2022/06/30 11:37:33;;;;;;;4.3;3;;;;;;;29.28;60.18164;932.7742;;;;
2022/06/30 11:39:57;;;;;;;3.9;3;;;;;;;29.41;58.56641;932.7206;;;;
2022/06/30 11:42:28;;;;;;;4.9;3;;;;;;;29.62;54.875;932.6843;;;;
2022/06/30 11:44:57;;;;;;;7.8;3.1;;;;;;;29.96;54.03223;932.6863;;;;
2022/06/30 11:47:24;;;;;;;4.8;2.8;;;;;;;30.28;54.8584;932.6672;;;;
2022/06/30 11:49:49;;;;;;;5.4;2.5;;;;;;;30.48;52.4707;932.6099;;;;
2022/06/30 11:52:17;;;;;;;4.3;3;;;;;;;30.57;52.82813;932.5643;;;;
2022/06/30 11:54:42;;;;;;;3;2.6;;;;;;;30.26;53.00684;932.5441;;;;
2022/06/30 11:57:07;;;;;;;4.9;2.9;;;;;;;30.29;55.45703;932.5839;;;;
2022/06/30 11:59:34;;;;;;;4.4;3.1;;;;;;;30.44;53.38477;932.5641;;;;
2022/06/30 12:01:57;;;;;;;4.4;3.1;;;;;;;30.4;51.04004;932.4788;;;;
2022/06/30 12:04:27;;;;;;;5;3;;;;;;;30.32;52.65625;932.4429;;;;
2022/06/30 12:06:52;;;;;;;4.5;2.7;;;;;;;30.42;53.5752;932.3923;;;;
2022/06/30 12:09:20;;;;;;;7.3;3.3;;;;;;;30.27;53.52148;932.4359;;;;
2022/06/30 12:11:45;;;;;;;4.8;2.7;;;;;;;30.41;53.63281;932.3876;;;;
2022/06/30 12:14:11;;;;;;;6.1;3.1;;;;;;;30.41;55.06543;932.3935;;;;
2022/06/30 12:16:36;;;;;;;5.6;3.3;;;;;;;29.79;55.54004;932.3159;;;;
2022/06/30 12:19:02;;;;;;;4.3;2.6;;;;;;;29.66;56.67969;932.3416;;;;
2022/06/30 12:21:27;;;;;;;4.4;2.8;;;;;;;29.59;57.87402;932.3297;;;;
2022/06/30 12:23:54;;;;;;;4.4;3.1;;;;;;;29.86;54.27148;932.3063;;;;
2022/06/30 12:26:19;;;;;;;4.1;2.8;;;;;;;30.07;54.35645;932.1817;;;;
2022/06/30 12:28:47;;;;;;;3.7;3.1;;;;;;;30.19;53.10645;932.1714;;;;
2022/06/30 12:31:12;;;;;;;5.6;3;;;;;;;30.16;54.4873;932.2;;;;
2022/06/30 12:33:37;;;;;;;3.8;2.8;;;;;;;30.15;53.76855;932.1739;;;;
2022/06/30 12:36:05;;;;;;;4.9;3.5;;;;;;;30.24;55.52246;932.1922;;;;
2022/06/30 12:38:30;;;;;;;4.1;2.9;;;;;;;30.31;53.05957;932.1732;;;;
2022/06/30 12:40:55;;;;;;;5.4;3.2;;;;;;;30.41;52.84473;932.1351;;;;
2022/06/30 12:43:20;;;;;;;3.2;2.9;;;;;;;30.08;53.86914;932.1362;;;;
2022/06/30 12:45:48;;;;;;;4.8;3.1;;;;;;;29.81;55.60156;932.1387;;;;
2022/06/30 12:48:12;;;;;;;4.7;2.8;;;;;;;29.84;54.40039;932.0612;;;;
2022/06/30 12:50:39;;;;;;;4.9;3;;;;;;;29.93;54.9834;932.1062;;;;
2022/06/30 12:53:04;;;;;;;5.5;2.8;;;;;;;29.85;56.90625;932.062;;;;
2022/06/30 12:55:30;;;;;;;4.1;3.1;;;;;;;29.88;54.89453;932.0811;;;;
2022/06/30 12:57:55;;;;;;;4.8;2.8;;;;;;;29.83;55.15137;932.1086;;;;
2022/06/30 13:00:20;;;;;;;3.9;2.7;;;;;;;29.96;55.28516;932.0977;;;;
2022/06/30 13:02:48;;;;;;;4;3.2;;;;;;;29.63;56.35449;932.0428;;;;
2022/06/30 13:05:13;;;;;;;5.5;3;;;;;;;29.9;53.63184;932.0383;;;;
2022/06/30 13:07:38;;;;;;;4.4;2.8;;;;;;;30.06;52.92383;932.0452;;;;
2022/06/30 13:10:07;;;;;;;4.6;2.9;;;;;;;30.03;55.38867;932.0128;;;;
2022/06/30 13:12:32;;;;;;;4.5;2.5;;;;;;;29.97;55.31055;931.9973;;;;
2022/06/30 13:14:58;;;;;;;5.1;3.1;;;;;;;29.92;55.07813;932.0078;;;;
2022/06/30 13:17:23;;;;;;;5.9;2.9;;;;;;;29.78;56.87305;931.9253;;;;
2022/06/30 13:19:51;;;;;;;4.4;3.1;;;;;;;29.91;54.10938;931.9192;;;;
2022/06/30 13:22:16;;;;;;;5.6;2.8;;;;;;;30.08;51.875;931.8617;;;;
2022/06/30 13:24:43;;;;;;;6.2;2.9;;;;;;;30.08;51.8877;931.8663;;;;
2022/06/30 13:27:12;;;;;;;5.7;2.8;;;;;;;30.2;52.19922;931.8129;;;;
2022/06/30 13:29:33;;;;;;;4.7;2.9;;;;;;;30.21;53.45313;931.7639;;;;
2022/06/30 13:31:59;;;;;;;8.1;3.2;;;;;;;30.19;52.87891;931.6905;;;;
2022/06/30 13:34:25;;;;;;;5.6;2.9;;;;;;;30.24;54.55566;931.6517;;;;
2022/06/30 13:36:50;;;;;;;5.2;3.2;;;;;;;30.19;50.32324;931.5322;;;;
2022/06/30 13:39:15;;;;;;;4.1;3;;;;;;;30.07;50.63379;931.4608;;;;
2022/06/30 13:41:42;;;;;;;11.5;3.4;;;;;;;29.85;53.44727;931.5104;;;;
2022/06/30 13:44:06;;;;;;;3.8;3;;;;;;;29.93;52.64551;931.4247;;;;
2022/06/30 13:46:34;;;;;;;3.6;2.8;;;;;;;29.99;52.1875;931.4128;;;;
2022/06/30 13:48:59;;;;;;;5.5;3.1;;;;;;;29.97;51.18359;931.3549;;;;
2022/06/30 13:51:24;;;;;;;5.4;2.8;;;;;;;29.83;51.75098;931.5067;;;;
2022/06/30 13:53:49;;;;;;;6.2;2.9;;;;;;;29.91;53.04883;931.4871;;;;
2022/06/30 13:56:14;;;;;;;6.7;3.1;;;;;;;29.85;51.5498;931.4905;;;;
2022/06/30 13:58:40;;;;;;;6.1;3.4;;;;;;;29.61;51.5957;931.4906;;;;
2022/06/30 14:01:05;;;;;;;6.3;2.9;;;;;;;29.44;52.93359;931.4579;;;;
2022/06/30 14:03:33;;;;;;;5.4;3.1;;;;;;;29.31;51.97852;931.4416;;;;
2022/06/30 14:06:00;;;;;;;4;3.2;;;;;;;29.14;52.2207;931.4398;;;;
2022/06/30 14:08:24;;;;;;;7.1;3.3;;;;;;;28.96;52.71191;931.407;;;;
2022/06/30 14:10:54;;;;;;;6.1;3;;;;;;;28.83;53.10059;931.3275;;;;
2022/06/30 14:13:19;;;;;;;6.6;3.3;;;;;;;28.68;54.08105;931.2573;;;;
2022/06/30 14:15:50;;;;;;;4.4;3;;;;;;;28.58;54.39063;931.2388;;;;
2022/06/30 14:18:13;;;;;;;5.1;3.1;;;;;;;28.5;54.3457;931.1914;;;;
2022/06/30 14:20:39;;;;;;;6.2;3.3;;;;;;;28.35;54.91016;931.0919;;;;
2022/06/30 14:23:03;;;;;;;3.6;2.9;;;;;;;28.28;55.33008;931.0481;;;;
2022/06/30 14:25:48;;;;;;;3.2;2.9;;;;;;;28.19;55.46094;931.1199;;;;
2022/06/30 14:27:56;;;;;;;8.5;3.6;;;;;;;28.06;55.93262;931.2172;;;;
2022/06/30 14:30:21;;;;;;;5;3.6;;;;;;;27.83;57.16211;931.3456;;;;
2022/06/30 14:32:49;;;;;;;5.6;3.3;;;;;;;27.63;57.16016;931.5291;;;;
2022/06/30 14:35:14;;;;;;;5.7;3;;;;;;;27.7;57.19336;931.5762;;;;
2022/06/30 14:37:41;;;;;;;6.3;3.3;;;;;;;27.44;57.83789;931.6133;;;;
2022/06/30 14:40:10;;;;;;;3.4;3.1;;;;;;;27.52;58.23828;931.4842;;;;
2022/06/30 14:42:47;;;;;;;5.7;2.9;;;;;;;27.52;58.16699;931.4934;;;;
2022/06/30 14:44:57;;;;;;;4.7;3.3;;;;;;;27.57;57.63965;931.6922;;;;
2022/06/30 14:47:21;;;;;;;4.4;3.2;;;;;;;27.57;57.75879;931.7517;;;;
2022/06/30 14:49:49;;;;;;;7.3;3.4;;;;;;;27.48;57.96094;931.7029;;;;
2022/06/30 14:52:14;;;;;;;4.7;3.6;;;;;;;27.28;59.58203;931.9917;;;;
2022/06/30 14:54:39;;;;;;;4.1;2.3;;;;;;;25.94;60.00781;932.1831;;;;
2022/06/30 14:57:04;;;;;;;10.7;6;;;;;;;24.58;69.58789;932.4604;;;;
2022/06/30 14:59:31;;;;;;;10.5;5;;;;;;;23.92;70.46191;932.7495;;;;
2022/06/30 15:01:56;;;;;;;7.5;3.5;;;;;;;23.32;71.51855;932.6806;;;;
2022/06/30 15:04:22;;;;;;;6.1;3.1;;;;;;;23.03;71.51855;932.9883;;;;
2022/06/30 15:06:47;;;;;;;13.6;5;;;;;;;22.92;72.3457;933.5373;;;;
2022/06/30 15:09:14;;;;;;;9.4;3.7;;;;;;;22.18;73.22363;933.85;;;;
2022/06/30 15:11:39;;;;;;;8.4;4.3;;;;;;;21.11;78.74219;934.0934;;;;
2022/06/30 15:14:05;;;;;;;9.1;4.3;;;;;;;20.46;82.5293;934.3055;;;;
2022/06/30 15:16:30;;;;;;;5.8;2.4;;;;;;;19.91;85.46973;934.0142;;;;
2022/06/30 15:18:57;;;;;;;1.1;1;;;;;;;19.26;87.83691;934.3303;;;;
2022/06/30 15:26:12;;;;;;;0.8;0.8;;;;;;;18.63;88.6084;935.693;;;;
2022/06/30 15:28:41;;;;;;;1.1;1;;;;;;;18.78;90.2666;935.8691;;;;
2022/06/30 15:31:06;;;;;;;0.6;0.6;;;;;;;18.63;91.37695;935.9331;;;;
2022/06/30 15:33:33;;;;;;;0.6;0.6;;;;;;;18.41;89.74902;935.5386;;;;
2022/06/30 15:35:58;;;;;;;2.5;2.3;;;;;;;18.6;91.89258;935.2576;;;;
2022/06/30 15:38:25;;;;;;;1.2;0.9;;;;;;;18.41;87.72559;935.1097;;;;
2022/06/30 15:40:50;;;;;;;4.1;1;;;;;;;18.2;87.5918;935.1294;;;;
2022/06/30 15:43:18;;;;;;;0.6;0.6;;;;;;;18.08;89.15918;935.3055;;;;
2022/06/30 15:45:44;;;;;;;2.2;0.6;;;;;;;18;89.30371;935.3217;;;;
2022/06/30 15:48:10;;;;;;;1.8;1;;;;;;;18.17;89.74707;935.2904;;;;
2022/06/30 15:50:35;;;;;;;0.7;0.7;;;;;;;18.3;89.86621;935.1635;;;;
2022/06/30 15:53:04;;;;;;;0.5;0.5;;;;;;;18.32;92.82422;935.0934;;;;
2022/06/30 15:55:31;;;;;;;0.7;0.7;;;;;;;18.48;93.75195;935.0511;;;;